createdAt,value
2022-10-02T00:00:03.493Z,86.61
2022-10-02T00:01:03.487Z,85.66
2022-10-02T00:02:03.486Z,85.76
2022-10-02T00:03:03.446Z,85.95
2022-10-02T00:04:03.709Z,85.86
2022-10-02T00:05:03.705Z,85.76
2022-10-02T00:06:03.663Z,86.05
2022-10-02T00:07:03.398Z,86.05
2022-10-02T00:08:03.382Z,86.52
2022-10-02T00:09:03.371Z,86.71
2022-10-02T00:10:03.610Z,86.47
2022-10-02T00:11:03.337Z,86.1
2022-10-02T00:12:03.591Z,85.62
2022-10-02T00:13:03.575Z,85.47
2022-10-02T00:14:03.298Z,85.81
2022-10-02T00:15:03.301Z,87.09
2022-10-02T00:16:03.449Z,86.86
2022-10-02T00:17:03.517Z,87.14
2022-10-02T00:18:03.521Z,86.47
2022-10-02T00:19:03.493Z,85.81
2022-10-02T00:20:03.216Z,85.34
2022-10-02T00:21:03.495Z,83.91
2022-10-02T00:22:03.447Z,83.82
2022-10-02T00:23:03.179Z,83.19
2022-10-02T00:24:03.171Z,82.71
2022-10-02T00:25:03.400Z,81.96
2022-10-02T00:26:03.388Z,82.24
2022-10-02T00:27:03.373Z,82.15
2022-10-02T00:28:03.615Z,82.81
2022-10-02T00:29:03.347Z,83.19
2022-10-02T00:30:03.090Z,83.86
2022-10-02T00:31:03.322Z,85.1
2022-10-02T00:32:03.453Z,85.76
2022-10-02T00:33:03.037Z,85.38
2022-10-02T00:34:03.315Z,86
2022-10-02T00:35:03.034Z,86.38
2022-10-02T00:36:03.007Z,86.47
2022-10-02T00:37:03.258Z,85.72
2022-10-02T00:38:02.969Z,84.86
2022-10-02T00:39:03.208Z,84.48
2022-10-02T00:40:03.199Z,84.01
2022-10-02T00:41:03.186Z,83.91
2022-10-02T00:42:03.168Z,83.53
2022-10-02T00:43:03.152Z,83.91
2022-10-02T00:44:03.145Z,83.72
2022-10-02T00:45:03.130Z,84.67
2022-10-02T00:46:03.236Z,83.82
2022-10-02T00:47:02.847Z,84.2
2022-10-02T00:48:03.088Z,83.82
2022-10-02T00:49:02.815Z,83.72
2022-10-02T00:50:02.828Z,83.53
2022-10-02T00:51:03.075Z,82.68
2022-10-02T00:52:02.788Z,82.49
2022-10-02T00:53:03.047Z,81.77
2022-10-02T00:54:03.007Z,81.38
2022-10-02T00:55:02.738Z,81.29
2022-10-02T00:56:02.986Z,80.82
2022-10-02T00:57:02.962Z,80.53
2022-10-02T00:58:02.694Z,80.34
2022-10-02T00:59:02.681Z,80.34
2022-10-02T01:00:02.671Z,80.63
2022-10-02T01:01:03.065Z,80.15
2022-10-02T01:02:02.810Z,80.34
2022-10-02T01:03:02.885Z,80.34
2022-10-02T01:04:02.876Z,81.01
2022-10-02T01:05:02.599Z,80.72
2022-10-02T01:06:02.869Z,81.58
2022-10-02T01:07:02.827Z,81.86
2022-10-02T01:08:02.560Z,82.53
2022-10-02T01:09:02.827Z,83.19
2022-10-02T01:10:02.536Z,83.67
2022-10-02T01:11:02.773Z,84.05
2022-10-02T01:12:02.753Z,84.62
2022-10-02T01:13:02.752Z,85.28
2022-10-02T01:14:02.728Z,85.47
2022-10-02T01:15:02.720Z,85.76
2022-10-02T01:16:02.572Z,86.43
2022-10-02T01:17:02.702Z,85.76
2022-10-02T01:18:02.682Z,85.24
2022-10-02T01:19:02.407Z,84.81
2022-10-02T01:20:02.394Z,84.81
2022-10-02T01:21:02.388Z,84.72
2022-10-02T01:22:02.391Z,83.82
2022-10-02T01:23:02.607Z,84.81
2022-10-02T01:24:02.339Z,85.76
2022-10-02T01:25:02.614Z,86.1
2022-10-02T01:26:02.579Z,86.76
2022-10-02T01:27:02.299Z,86.86
2022-10-02T01:28:02.747Z,86.57
2022-10-02T01:29:02.272Z,85.81
2022-10-02T01:30:02.314Z,85.91
2022-10-02T01:31:02.247Z,85.91
2022-10-02T01:32:02.371Z,85.91
2022-10-02T01:33:02.496Z,85.81
2022-10-02T01:34:02.461Z,85.91
2022-10-02T01:35:02.451Z,85.72
2022-10-02T01:36:02.430Z,85.91
2022-10-02T01:37:02.426Z,86
2022-10-02T01:38:02.425Z,85.91
2022-10-02T01:39:02.392Z,86.19
2022-10-02T01:40:02.376Z,86.38
2022-10-02T01:41:02.394Z,86.47
2022-10-02T01:42:02.346Z,85.81
2022-10-02T01:43:02.344Z,84.95
2022-10-02T01:44:02.320Z,83.82
2022-10-02T01:45:02.059Z,84.01
2022-10-02T01:46:02.443Z,83.82
2022-10-02T01:47:02.028Z,83.25
2022-10-02T01:48:02.267Z,82.77
2022-10-02T01:49:02.258Z,82.58
2022-10-02T01:50:01.987Z,82.39
2022-10-02T01:51:02.231Z,82.58
2022-10-02T01:52:01.955Z,82.49
2022-10-02T01:53:02.197Z,81.54
2022-10-02T01:54:02.204Z,81.54
2022-10-02T01:55:01.912Z,81.35
2022-10-02T01:56:01.897Z,81.54
2022-10-02T01:57:02.170Z,80.96
2022-10-02T01:58:01.874Z,80.96
2022-10-02T01:59:01.858Z,80.87
2022-10-02T02:00:02.100Z,81.16
2022-10-02T02:01:01.920Z,81.06
2022-10-02T02:02:02.242Z,80.68
2022-10-02T02:03:02.063Z,80.58
2022-10-02T02:04:02.653Z,80.21
2022-10-02T02:05:02.396Z,80.3
2022-10-02T02:06:02.372Z,80.87
2022-10-02T02:07:02.614Z,81.16
2022-10-02T02:08:02.597Z,80.96
2022-10-02T02:09:04.582Z,81.16
2022-10-02T02:10:02.574Z,81.16
2022-10-02T02:11:02.299Z,80.77
2022-10-02T02:12:02.541Z,80.87
2022-10-02T02:13:02.549Z,80.87
2022-10-02T02:14:02.256Z,80.87
2022-10-02T02:15:02.541Z,81.06
2022-10-02T02:16:02.606Z,80.96
2022-10-02T02:17:02.642Z,81.06
2022-10-02T02:18:02.487Z,80.96
2022-10-02T02:19:02.447Z,80.21
2022-10-02T02:20:02.196Z,80.96
2022-10-02T02:21:02.417Z,81.25
2022-10-02T02:22:02.159Z,81.44
2022-10-02T02:23:02.180Z,81.63
2022-10-02T02:24:02.385Z,82.2
2022-10-02T02:25:02.128Z,82.58
2022-10-02T02:26:02.092Z,82.1
2022-10-02T02:27:02.333Z,81.82
2022-10-02T02:28:02.431Z,81.54
2022-10-02T02:29:02.329Z,81.73
2022-10-02T02:30:02.040Z,82.1
2022-10-02T02:31:02.273Z,82.01
2022-10-02T02:32:02.374Z,80.96
2022-10-02T02:33:01.997Z,79.35
2022-10-02T02:34:02.238Z,78.97
2022-10-02T02:35:02.223Z,78.97
2022-10-02T02:36:02.207Z,79.35
2022-10-02T02:37:01.935Z,79.83
2022-10-02T02:38:01.922Z,80.49
2022-10-02T02:39:01.907Z,81.16
2022-10-02T02:40:02.156Z,80.96
2022-10-02T02:41:01.921Z,80.4
2022-10-02T02:42:01.871Z,80.11
2022-10-02T02:43:02.112Z,80.21
2022-10-02T02:44:02.098Z,80.77
2022-10-02T02:45:02.173Z,80.77
2022-10-02T02:46:02.194Z,80.74
2022-10-02T02:47:01.793Z,81.06
2022-10-02T02:48:01.789Z,80.96
2022-10-02T02:49:02.024Z,81.21
2022-10-02T02:50:01.764Z,79.69
2022-10-02T02:51:01.741Z,79.5
2022-10-02T02:52:01.726Z,78.97
2022-10-02T02:53:01.716Z,78.97
2022-10-02T02:54:01.948Z,78.83
2022-10-02T02:55:01.683Z,79.16
2022-10-02T02:56:01.930Z,79.73
2022-10-02T02:57:01.938Z,78.83
2022-10-02T02:58:01.902Z,78.97
2022-10-02T02:59:01.884Z,78.97
2022-10-02T03:00:01.869Z,78.88
2022-10-02T03:01:01.980Z,78.88
2022-10-02T03:02:01.707Z,78.4
2022-10-02T03:03:01.576Z,78.88
2022-10-02T03:04:01.811Z,78.97
2022-10-02T03:05:01.827Z,78.97
2022-10-02T03:06:01.528Z,78.97
2022-10-02T03:07:01.770Z,78.83
2022-10-02T03:08:01.509Z,78.83
2022-10-02T03:09:01.490Z,79.03
2022-10-02T03:10:01.726Z,78.93
2022-10-02T03:11:01.718Z,78.93
2022-10-02T03:12:01.463Z,78.83
2022-10-02T03:13:01.709Z,78.36
2022-10-02T03:14:01.414Z,77.89
2022-10-02T03:15:01.658Z,78.59
2022-10-02T03:16:01.590Z,78.36
2022-10-02T03:17:01.651Z,78.88
2022-10-02T03:18:01.358Z,78.83
2022-10-02T03:19:01.345Z,78.93
2022-10-02T03:20:01.604Z,77.89
2022-10-02T03:21:01.314Z,78.5
2022-10-02T03:22:01.303Z,77.83
2022-10-02T03:23:01.549Z,78.4
2022-10-02T03:24:01.271Z,77.98
2022-10-02T03:25:01.260Z,77.98
2022-10-02T03:26:01.504Z,78.36
2022-10-02T03:27:01.235Z,78.93
2022-10-02T03:28:01.663Z,78.93
2022-10-02T03:29:02.019Z,79.69
2022-10-02T03:30:01.815Z,79.31
2022-10-02T03:31:01.563Z,79.6
2022-10-02T03:32:01.526Z,79.03
2022-10-02T03:49:44.279Z,77.79
2022-10-02T03:50:44.218Z,78.17
2022-10-02T03:51:44.196Z,77.41
2022-10-02T03:52:43.925Z,77.98
2022-10-02T03:53:44.159Z,77.12
2022-10-02T03:54:43.888Z,77.03
2022-10-02T03:55:43.869Z,76.4
2022-10-02T03:56:44.115Z,75.64
2022-10-02T03:57:43.843Z,75.84
2022-10-02T03:58:43.823Z,75.74
2022-10-02T03:59:44.065Z,75.55
2022-10-02T04:00:43.791Z,75.45
2022-10-02T04:01:49.189Z,75.17
2022-10-02T04:02:43.764Z,75.07
2022-10-02T04:03:43.851Z,75.17
2022-10-02T04:04:43.733Z,75.17
2022-10-02T04:05:44.022Z,75.36
2022-10-02T04:06:43.966Z,74.41
2022-10-02T04:07:43.687Z,74.6
2022-10-02T04:08:43.928Z,74.6
2022-10-02T04:09:43.911Z,74.98
2022-10-02T04:10:43.648Z,75.36
2022-10-02T04:11:43.626Z,75.55
2022-10-02T04:12:43.878Z,75.55
2022-10-02T04:13:43.855Z,75.64
2022-10-02T04:14:43.850Z,75.64
2022-10-02T04:15:43.904Z,75.74
2022-10-02T04:16:43.972Z,75.74
2022-10-02T04:17:43.548Z,75.64
2022-10-02T04:18:43.785Z,75.26
2022-10-02T04:19:43.773Z,75.55
2022-10-02T04:20:43.505Z,74.98
2022-10-02T04:21:43.794Z,75.11
2022-10-02T04:22:43.478Z,75.26
2022-10-02T04:23:43.456Z,74.88
2022-10-02T04:24:43.703Z,74.44
2022-10-02T04:25:43.688Z,74.44
2022-10-02T04:26:43.418Z,74.82
2022-10-02T04:27:43.401Z,74.44
2022-10-02T04:28:43.388Z,74.73
2022-10-02T04:29:43.632Z,74.35
2022-10-02T04:30:43.359Z,74.54
2022-10-02T04:31:43.412Z,74.44
2022-10-02T04:32:43.593Z,74.16
2022-10-02T04:33:43.323Z,74.07
2022-10-02T04:34:43.310Z,74.44
2022-10-02T04:35:43.545Z,74.63
2022-10-02T04:36:43.277Z,74.44
2022-10-02T04:37:43.565Z,74.54
2022-10-02T04:38:43.515Z,74.92
2022-10-02T04:39:48.507Z,74.26
2022-10-02T04:40:43.230Z,74.73
2022-10-02T04:41:43.469Z,74.73
2022-10-02T04:42:43.457Z,74.54
2022-10-02T04:43:43.182Z,74.73
2022-10-02T04:44:43.165Z,74.82
2022-10-02T04:45:43.240Z,75.4
2022-10-02T04:46:43.403Z,75.21
2022-10-02T04:47:43.396Z,75.02
2022-10-02T04:48:43.370Z,74.92
2022-10-02T04:49:43.100Z,74.73
2022-10-02T04:50:43.345Z,74.92
2022-10-02T04:51:43.078Z,74.92
2022-10-02T04:52:43.059Z,74.82
2022-10-02T04:53:43.357Z,74.73
2022-10-02T04:54:43.039Z,74.82
2022-10-02T04:55:43.023Z,74.73
2022-10-02T04:56:43.270Z,75.3
2022-10-02T04:57:43.249Z,74.92
2022-10-02T04:58:43.245Z,75.11
2022-10-02T04:59:43.231Z,75.59
2022-10-02T05:00:43.446Z,75.78
2022-10-02T05:01:43.105Z,75.78
2022-10-02T05:02:42.936Z,75.49
2022-10-02T05:03:43.172Z,75.78
2022-10-02T05:04:42.910Z,75.21
2022-10-02T05:05:43.144Z,75.96
2022-10-02T05:06:43.134Z,76.06
2022-10-02T05:07:43.124Z,76.16
2022-10-02T05:08:42.844Z,76.73
2022-10-02T05:09:43.138Z,76.73
2022-10-02T05:10:42.834Z,77.2
2022-10-02T05:11:43.065Z,77.49
2022-10-02T05:12:42.794Z,76.73
2022-10-02T05:13:42.780Z,76.82
2022-10-02T05:14:43.032Z,76.92
2022-10-02T05:15:43.019Z,77.3
2022-10-02T05:16:43.337Z,77.3
2022-10-02T05:17:42.990Z,76.92
2022-10-02T05:18:42.713Z,76.63
2022-10-02T05:19:42.711Z,76.63
2022-10-02T05:20:42.938Z,76.54
2022-10-02T05:21:42.682Z,76.25
2022-10-02T05:22:42.917Z,76.35
2022-10-02T05:23:42.910Z,76.44
2022-10-02T05:24:42.632Z,76.16
2022-10-02T05:25:42.924Z,76.16
2022-10-02T05:26:42.869Z,75.4
2022-10-02T05:27:42.596Z,75.49
2022-10-02T05:28:42.581Z,75.68
2022-10-02T05:29:42.823Z,76.73
2022-10-02T05:30:42.925Z,76.92
2022-10-02T05:31:42.815Z,77.3
2022-10-02T05:32:42.897Z,77.2
2022-10-02T05:33:48.423Z,77.01
2022-10-02T05:34:42.762Z,76.92
2022-10-02T05:35:42.857Z,77.49
2022-10-02T05:36:42.842Z,77.01
2022-10-02T05:37:42.827Z,76.92
2022-10-02T05:38:42.822Z,76.44
2022-10-02T05:39:42.547Z,75.68
2022-10-02T05:40:42.537Z,75.78
2022-10-02T05:41:42.817Z,74.92
2022-10-02T05:42:45.412Z,75.11
2022-10-02T05:43:42.496Z,74.73
2022-10-02T05:44:42.485Z,75.21
2022-10-02T05:45:42.720Z,74.73
2022-10-02T05:46:43.426Z,74.1
2022-10-02T05:47:42.697Z,74.2
2022-10-02T05:48:42.700Z,73.72
2022-10-02T05:49:42.667Z,73.72
2022-10-02T05:50:42.656Z,73.53
2022-10-02T05:51:42.644Z,73.25
2022-10-02T05:52:42.635Z,72.96
2022-10-02T05:53:42.370Z,72.96
2022-10-02T05:54:42.609Z,72.86
2022-10-02T05:55:42.336Z,73.15
2022-10-02T05:56:42.582Z,73.15
2022-10-02T05:57:42.620Z,73.19
2022-10-02T05:58:42.317Z,73.38
2022-10-02T05:59:42.285Z,73.25
2022-10-02T06:00:42.460Z,73.19
2022-10-02T06:01:42.393Z,73
2022-10-02T06:02:42.640Z,72.52
2022-10-02T06:03:42.495Z,73
2022-10-02T06:04:42.485Z,73.1
2022-10-02T06:05:42.204Z,73
2022-10-02T06:06:42.481Z,73.85
2022-10-02T06:07:42.445Z,73.76
2022-10-02T06:08:42.435Z,73.28
2022-10-02T06:09:42.411Z,73.85
2022-10-02T06:10:42.403Z,73.85
2022-10-02T06:11:42.133Z,74.14
2022-10-02T06:12:42.382Z,73.19
2022-10-02T06:13:42.441Z,73.19
2022-10-02T06:14:42.350Z,73.57
2022-10-02T06:15:42.339Z,73.38
2022-10-02T06:16:42.732Z,73.8
2022-10-02T06:17:42.317Z,73.19
2022-10-02T06:18:42.042Z,73.22
2022-10-02T06:19:42.030Z,73.22
2022-10-02T06:20:42.277Z,74.08
2022-10-02T06:21:42.263Z,73.8
2022-10-02T06:22:42.253Z,73.7
2022-10-02T06:23:42.239Z,73.89
2022-10-02T06:24:42.226Z,73.8
2022-10-02T06:25:41.963Z,73.89
2022-10-02T06:26:42.265Z,73.99
2022-10-02T06:27:42.188Z,74.08
2022-10-02T06:28:41.921Z,74.18
2022-10-02T06:29:42.215Z,74.27
2022-10-02T06:30:41.899Z,74.18
2022-10-02T06:31:42.010Z,73.89
2022-10-02T06:32:42.136Z,74.18
2022-10-02T06:33:41.865Z,74.84
2022-10-02T06:34:45.778Z,75.32
2022-10-02T06:35:42.099Z,74.84
2022-10-02T06:36:42.177Z,74.65
2022-10-02T06:37:42.091Z,75.07
2022-10-02T06:38:41.802Z,75.07
2022-10-02T06:39:41.793Z,75.36
2022-10-02T06:40:42.039Z,75.74
2022-10-02T06:41:41.766Z,75.74
2022-10-02T06:42:42.024Z,75.74
2022-10-02T06:43:42.007Z,75.93
2022-10-02T06:44:41.737Z,75.84
2022-10-02T06:45:42.115Z,76.59
2022-10-02T06:46:42.102Z,77.07
2022-10-02T06:47:41.695Z,77.26
2022-10-02T06:48:41.940Z,76.98
2022-10-02T06:49:41.934Z,77.64
2022-10-02T06:50:41.658Z,77.45
2022-10-02T06:51:41.908Z,78.12
2022-10-02T06:52:41.892Z,78.03
2022-10-02T06:53:41.882Z,77.83
2022-10-02T06:54:41.614Z,78.03
2022-10-02T06:55:41.859Z,78.41
2022-10-02T06:56:42.303Z,79.3
2022-10-02T06:57:41.836Z,79.21
2022-10-02T06:58:41.826Z,80.35
2022-10-02T06:59:41.558Z,80.73
2022-10-02T07:00:41.631Z,81.21
2022-10-02T07:01:41.934Z,81.68
2022-10-02T07:02:41.783Z,82.41
2022-10-02T07:03:41.511Z,83.02
2022-10-02T07:04:41.757Z,83.55
2022-10-02T07:05:41.752Z,84.07
2022-10-02T07:06:42.233Z,84.45
2022-10-02T07:07:41.726Z,84.41
2022-10-02T07:08:41.450Z,84.41
2022-10-02T07:09:41.703Z,84.36
2022-10-02T07:10:41.687Z,84.03
2022-10-02T07:11:41.420Z,83.69
2022-10-02T07:12:41.664Z,84.45
2022-10-02T07:13:41.406Z,84.45
2022-10-02T07:14:41.645Z,83.88
2022-10-02T07:15:41.373Z,83.21
2022-10-02T07:16:42.448Z,87.4
2022-10-02T07:17:41.657Z,89.4
2022-10-02T07:18:41.602Z,88.36
2022-10-02T07:19:41.355Z,90.17
2022-10-02T07:20:41.588Z,89.98
2022-10-02T07:21:41.313Z,90.03
2022-10-02T07:22:47.750Z,90.79
2022-10-02T07:23:41.547Z,92.32
2022-10-02T07:24:41.541Z,93.55
2022-10-02T07:25:41.261Z,95.08
2022-10-02T07:26:42.068Z,94.7
2022-10-02T07:27:41.495Z,95.94
2022-10-02T07:28:41.234Z,95.75
2022-10-02T07:29:41.478Z,95.94
2022-10-02T07:30:41.209Z,95.17
2022-10-02T07:31:41.505Z,95.46
2022-10-02T07:32:41.446Z,99.18
2022-10-02T07:33:41.513Z,99.99
2022-10-02T07:34:41.173Z,99.99
2022-10-02T07:35:41.414Z,99.99
2022-10-02T07:36:41.869Z,99.99
2022-10-02T07:37:41.137Z,99.99
2022-10-02T07:38:41.383Z,99.99
2022-10-02T07:39:41.371Z,99.99
2022-10-02T07:40:41.369Z,99.99
2022-10-02T07:41:41.965Z,99.99
2022-10-02T07:42:41.965Z,99.99
2022-10-02T07:43:41.955Z,99.99
2022-10-02T07:44:41.678Z,99.99
2022-10-02T07:45:42.066Z,99.99
2022-10-02T07:46:41.740Z,99.99
2022-10-02T07:47:41.647Z,99.99
2022-10-02T07:48:41.644Z,99.99
2022-10-02T07:49:41.933Z,99.99
2022-10-02T07:50:41.878Z,99.99
2022-10-02T07:51:41.610Z,99.99
2022-10-02T07:52:41.601Z,99.99
2022-10-02T07:53:41.851Z,99.99
2022-10-02T07:54:41.578Z,99.99
2022-10-02T07:55:41.581Z,99.99
2022-10-02T07:56:41.768Z,99.99
2022-10-02T07:57:41.810Z,99.99
2022-10-02T07:58:41.796Z,99.99
2022-10-02T07:59:41.931Z,99.99
2022-10-02T08:00:41.777Z,99.99
2022-10-02T08:01:41.845Z,99.99
2022-10-02T08:02:41.754Z,99.99
2022-10-02T08:03:42.327Z,99.99
2022-10-02T08:04:42.459Z,99.99
2022-10-02T08:05:42.489Z,99.99
2022-10-02T08:06:42.437Z,99.99
2022-10-02T08:07:42.424Z,99.99
2022-10-02T08:08:42.443Z,99.99
2022-10-02T08:09:42.416Z,99.99
2022-10-02T08:10:42.393Z,99.99
2022-10-02T08:11:45.062Z,99.99
2022-10-02T08:12:42.368Z,99.99
2022-10-02T08:13:42.111Z,99.99
2022-10-02T08:14:42.351Z,99.99
2022-10-02T08:15:42.087Z,99.99
2022-10-02T08:16:43.107Z,99.99
2022-10-02T08:17:42.332Z,99.99
2022-10-02T08:18:42.311Z,99.99
2022-10-02T08:19:42.051Z,99.99
2022-10-02T08:20:42.291Z,99.99
2022-10-02T08:21:42.337Z,99.99
2022-10-02T08:22:42.271Z,99.99
2022-10-02T08:23:42.006Z,99.99
2022-10-02T08:24:41.992Z,99.99
2022-10-02T08:25:41.992Z,99.99
2022-10-02T08:26:42.609Z,99.99
2022-10-02T08:27:41.972Z,99.99
2022-10-02T08:28:42.213Z,99.99
2022-10-02T08:29:42.209Z,99.99
2022-10-02T08:30:41.940Z,99.99
2022-10-02T08:31:42.315Z,99.99
2022-10-02T08:32:42.180Z,99.99
2022-10-02T08:33:42.396Z,99.99
2022-10-02T08:34:42.150Z,99.99
2022-10-02T08:35:41.891Z,99.99
2022-10-02T08:36:42.092Z,99.99
2022-10-02T08:37:42.181Z,99.99
2022-10-02T08:38:41.862Z,99.99
2022-10-02T08:39:42.004Z,99.99
2022-10-02T08:40:42.098Z,99.99
2022-10-02T08:41:42.094Z,99.99
2022-10-02T08:42:42.082Z,99.99
2022-10-02T08:43:42.073Z,99.99
2022-10-02T08:44:42.073Z,99.99
2022-10-02T08:45:42.148Z,99.99
2022-10-02T08:46:42.396Z,99.99
2022-10-02T08:47:42.033Z,99.99
2022-10-02T08:48:41.766Z,99.99
2022-10-02T08:49:41.774Z,99.99
2022-10-02T08:50:42.008Z,99.99
2022-10-02T08:51:41.996Z,99.99
2022-10-02T08:52:41.728Z,99.99
2022-10-02T08:53:42.150Z,99.99
2022-10-02T08:54:41.713Z,99.99
2022-10-02T08:55:41.983Z,99.99
2022-10-02T08:56:42.033Z,99.99
2022-10-02T08:57:41.946Z,99.99
2022-10-02T08:58:41.937Z,99.99
2022-10-02T08:59:41.925Z,99.99
2022-10-02T09:00:42.084Z,99.99
2022-10-02T09:01:41.657Z,99.99
2022-10-02T09:02:41.702Z,99.99
2022-10-02T09:03:41.636Z,99.99
2022-10-02T09:04:41.626Z,99.99
2022-10-02T09:05:41.641Z,99.99
2022-10-02T09:06:41.671Z,99.99
2022-10-02T09:07:41.594Z,99.99
2022-10-02T09:08:41.840Z,99.99
2022-10-02T09:09:41.947Z,99.99
2022-10-02T09:10:41.825Z,99.99
2022-10-02T09:11:41.815Z,99.99
2022-10-02T09:12:41.805Z,99.99
2022-10-02T09:13:41.794Z,99.99
2022-10-02T09:14:41.791Z,99.99
2022-10-02T09:15:41.778Z,99.99
2022-10-02T09:16:42.450Z,99.99
2022-10-02T09:17:41.762Z,99.99
2022-10-02T09:18:41.756Z,99.99
2022-10-02T09:19:41.747Z,99.99
2022-10-02T09:20:41.482Z,99.99
2022-10-02T09:21:41.723Z,99.99
2022-10-02T09:22:41.464Z,99.99
2022-10-02T09:23:41.456Z,99.99
2022-10-02T09:24:41.699Z,99.99
2022-10-02T09:25:41.743Z,99.99
2022-10-02T09:26:41.814Z,99.99
2022-10-02T09:27:41.672Z,99.99
2022-10-02T09:28:41.667Z,99.99
2022-10-02T09:29:41.654Z,99.99
2022-10-02T09:30:41.657Z,99.99
2022-10-02T09:31:41.794Z,99.99
2022-10-02T09:32:41.374Z,99.99
2022-10-02T09:33:41.367Z,99.99
2022-10-02T09:34:41.623Z,99.99
2022-10-02T09:35:41.607Z,99.99
2022-10-02T09:36:41.944Z,99.99
2022-10-02T09:37:41.589Z,99.99
2022-10-02T09:38:41.828Z,99.99
2022-10-02T09:39:41.568Z,99.99
2022-10-02T09:40:41.309Z,99.99
2022-10-02T09:41:41.664Z,99.99
2022-10-02T09:42:41.550Z,99.99
2022-10-02T09:43:41.288Z,99.99
2022-10-02T09:44:41.527Z,99.99
2022-10-02T09:45:41.583Z,99.99
2022-10-02T09:46:42.020Z,99.99
2022-10-02T09:47:41.507Z,99.99
2022-10-02T09:48:41.237Z,99.99
2022-10-02T09:49:41.486Z,99.99
2022-10-02T09:50:41.216Z,99.99
2022-10-02T09:51:41.216Z,99.99
2022-10-02T09:52:45.298Z,99.99
2022-10-02T09:53:41.936Z,99.99
2022-10-02T09:54:41.925Z,99.99
2022-10-02T09:55:41.666Z,99.99
2022-10-02T09:56:42.061Z,99.99
2022-10-02T09:57:41.949Z,99.99
2022-10-02T09:58:41.892Z,99.99
2022-10-02T09:59:41.896Z,99.99
2022-10-02T10:00:41.965Z,99.99
2022-10-02T10:01:43.254Z,99.99
2022-10-02T10:02:41.969Z,99.99
2022-10-02T10:03:41.601Z,99.99
2022-10-02T10:05:06.877Z,99.99
2022-10-02T10:05:41.835Z,99.99
2022-10-02T10:06:42.378Z,99.99
2022-10-02T10:07:41.567Z,99.99
2022-10-02T10:08:41.809Z,99.99
2022-10-02T10:09:41.550Z,99.99
2022-10-02T10:10:41.792Z,99.99
2022-10-02T10:11:42.285Z,99.99
2022-10-02T10:12:41.774Z,99.99
2022-10-02T10:13:41.819Z,99.99
2022-10-02T10:14:42.193Z,99.99
2022-10-02T10:15:42.198Z,99.99
2022-10-02T10:16:42.036Z,99.99
2022-10-02T10:17:41.922Z,99.99
2022-10-02T10:18:41.907Z,99.99
2022-10-02T10:19:41.909Z,99.99
2022-10-02T10:20:42.149Z,99.99
2022-10-02T10:21:42.526Z,99.99
2022-10-02T10:22:42.128Z,99.99
2022-10-02T10:23:42.127Z,99.99
2022-10-02T10:24:41.859Z,99.99
2022-10-02T10:25:41.851Z,99.99
2022-10-02T10:26:41.839Z,99.99
2022-10-02T10:27:42.090Z,99.99
2022-10-02T10:28:41.827Z,99.99
2022-10-02T10:29:42.127Z,99.99
2022-10-02T10:30:42.062Z,99.99
2022-10-02T10:31:42.819Z,99.99
2022-10-02T10:32:41.792Z,99.99
2022-10-02T10:33:42.052Z,99.99
2022-10-02T10:34:42.028Z,99.99
2022-10-02T10:35:41.768Z,99.99
2022-10-02T10:36:46.782Z,99.99
2022-10-02T10:37:42.007Z,99.99
2022-10-02T10:38:41.994Z,99.99
2022-10-02T10:39:41.731Z,99.99
2022-10-02T10:40:41.979Z,99.99
2022-10-02T10:41:42.249Z,99.99
2022-10-02T10:43:08.177Z,99.99
2022-10-02T10:43:41.950Z,99.99
2022-10-02T10:44:41.948Z,99.99
2022-10-02T10:45:42.075Z,99.99
2022-10-02T10:46:41.677Z,99.99
2022-10-02T10:47:41.926Z,99.99
2022-10-02T10:48:44.797Z,99.99
2022-10-02T10:49:41.646Z,99.99
2022-10-02T10:50:41.899Z,99.99
2022-10-02T10:51:42.095Z,99.99
2022-10-02T10:52:41.882Z,99.99
2022-10-02T10:53:41.878Z,99.99
2022-10-02T10:54:41.610Z,99.99
2022-10-02T10:55:41.606Z,99.99
2022-10-02T10:56:41.852Z,99.99
2022-10-02T10:57:41.577Z,99.99
2022-10-02T10:58:41.717Z,99.99
2022-10-02T10:59:41.964Z,99.99
2022-10-02T11:00:42.049Z,99.99
2022-10-02T11:01:42.829Z,99.99
2022-10-02T11:02:42.055Z,99.99
2022-10-02T11:03:41.929Z,99.99
2022-10-02T11:04:41.665Z,99.99
2022-10-02T11:05:41.662Z,99.99
2022-10-02T11:06:47.656Z,99.99
2022-10-02T11:07:41.637Z,99.99
2022-10-02T11:08:41.893Z,99.99
2022-10-02T11:09:41.626Z,99.99
2022-10-02T11:10:41.626Z,99.99
2022-10-02T11:11:42.213Z,99.99
2022-10-02T11:12:41.602Z,99.99
2022-10-02T11:13:41.587Z,99.99
2022-10-02T11:14:41.843Z,99.99
2022-10-02T11:15:41.832Z,99.99
2022-10-02T11:16:41.733Z,99.99
2022-10-02T11:17:41.860Z,99.99
2022-10-02T11:18:41.548Z,99.99
2022-10-02T11:19:41.803Z,99.99
2022-10-02T11:20:41.796Z,99.99
2022-10-02T11:21:41.947Z,99.99
2022-10-02T11:22:41.519Z,99.99
2022-10-02T11:23:41.770Z,99.99
2022-10-02T11:24:41.502Z,99.99
2022-10-02T11:25:41.743Z,99.99
2022-10-02T11:26:41.482Z,99.99
2022-10-02T11:27:41.729Z,99.99
2022-10-02T11:28:41.720Z,99.99
2022-10-02T11:29:41.453Z,99.99
2022-10-02T11:30:44.205Z,99.99
2022-10-02T11:31:42.471Z,99.99
2022-10-02T11:32:41.437Z,99.99
2022-10-02T11:33:41.728Z,99.99
2022-10-02T11:34:41.670Z,99.99
2022-10-02T11:35:41.665Z,99.99
2022-10-02T11:36:41.400Z,99.99
2022-10-02T11:37:41.653Z,99.99
2022-10-02T11:38:41.379Z,99.99
2022-10-02T11:39:41.631Z,99.99
2022-10-02T11:40:41.636Z,99.99
2022-10-02T11:41:41.891Z,99.99
2022-10-02T11:42:41.348Z,99.99
2022-10-02T11:43:46.068Z,99.99
2022-10-02T11:44:41.335Z,99.99
2022-10-02T11:45:41.430Z,99.99
2022-10-02T11:46:41.570Z,99.99
2022-10-02T11:47:41.576Z,99.99
2022-10-02T11:48:41.300Z,99.99
2022-10-02T11:49:41.726Z,99.99
2022-10-02T11:50:41.560Z,99.99
2022-10-02T11:51:41.928Z,99.99
2022-10-02T11:52:44.756Z,99.99
2022-10-02T11:53:41.523Z,99.99
2022-10-02T11:54:41.509Z,99.99
2022-10-02T11:55:41.254Z,99.99
2022-10-02T11:56:41.498Z,99.99
2022-10-02T11:57:41.491Z,99.99
2022-10-02T11:58:41.481Z,99.99
2022-10-02T11:59:41.218Z,99.99
2022-10-02T12:00:41.465Z,99.99
2022-10-02T12:01:41.762Z,99.99
2022-10-02T12:02:41.538Z,99.99
2022-10-02T12:03:41.721Z,99.99
2022-10-02T12:04:41.718Z,99.99
2022-10-02T12:05:41.758Z,99.99
2022-10-02T12:06:41.701Z,99.99
2022-10-02T12:07:41.698Z,99.99
2022-10-02T12:08:41.689Z,99.99
2022-10-02T12:09:41.688Z,99.99
2022-10-02T12:10:41.671Z,99.99
2022-10-02T12:11:42.283Z,99.99
2022-10-02T12:12:41.398Z,99.99
2022-10-02T12:13:41.389Z,99.99
2022-10-02T12:14:41.638Z,99.99
2022-10-02T12:15:41.637Z,99.99
2022-10-02T12:16:41.815Z,99.99
2022-10-02T12:17:41.360Z,99.99
2022-10-02T12:18:41.351Z,99.99
2022-10-02T12:19:41.343Z,99.99
2022-10-02T12:20:41.337Z,99.99
2022-10-02T12:21:42.188Z,99.99
2022-10-02T12:22:41.576Z,99.99
2022-10-02T12:23:41.313Z,99.99
2022-10-02T12:24:41.559Z,99.99
2022-10-02T12:25:41.296Z,99.99
2022-10-02T12:26:41.548Z,99.99
2022-10-02T12:27:41.535Z,99.99
2022-10-02T12:28:41.531Z,99.99
2022-10-02T12:29:41.264Z,99.99
2022-10-02T12:30:41.514Z,99.99
2022-10-02T12:31:42.233Z,99.99
2022-10-02T12:32:41.245Z,99.99
2022-10-02T12:33:41.485Z,99.99
2022-10-02T12:34:41.483Z,99.99
2022-10-02T12:35:41.209Z,99.99
2022-10-02T12:36:41.460Z,99.99
2022-10-02T12:37:41.510Z,99.99
2022-10-02T12:38:41.195Z,99.99
2022-10-02T12:39:41.511Z,99.99
2022-10-02T12:40:41.436Z,99.99
2022-10-02T12:41:41.847Z,99.99
2022-10-02T12:42:41.159Z,99.99
2022-10-02T12:43:41.147Z,99.99
2022-10-02T12:44:41.393Z,99.99
2022-10-02T12:45:41.515Z,99.99
2022-10-02T12:46:41.380Z,99.99
2022-10-02T12:47:41.109Z,99.99
2022-10-02T12:48:41.105Z,99.99
2022-10-02T12:49:41.423Z,99.99
2022-10-02T12:50:41.086Z,99.99
2022-10-02T12:51:41.695Z,99.99
2022-10-02T12:52:41.074Z,99.99
2022-10-02T12:53:41.364Z,99.99
2022-10-02T12:54:41.053Z,99.99
2022-10-02T12:55:41.038Z,99.99
2022-10-02T12:56:41.297Z,99.99
2022-10-02T12:57:41.660Z,99.99
2022-10-02T12:58:41.014Z,99.99
2022-10-02T12:59:41.067Z,99.99
2022-10-02T13:00:41.255Z,99.99
2022-10-02T13:01:41.877Z,99.99
2022-10-02T13:03:02.612Z,99.99
2022-10-02T13:03:41.226Z,99.99
2022-10-02T13:04:41.226Z,99.99
2022-10-02T13:05:44.676Z,99.99
2022-10-02T13:06:41.208Z,99.99
2022-10-02T13:07:40.940Z,99.99
2022-10-02T13:08:41.199Z,99.99
2022-10-02T13:09:41.304Z,99.99
2022-10-02T13:10:41.172Z,99.99